sensor_id;sensor_type;location;lat;lon;timestamp;P1;durP1;ratioP1;P2;durP2;ratioP2
12832;SDS011;6483;51.310;4.462;2022-12-07T00:01:32;4.73;;;3.73;;
12832;SDS011;6483;51.310;4.462;2022-12-07T00:04:03;5.43;;;3.57;;
12832;SDS011;6483;51.310;4.462;2022-12-07T00:06:34;6.60;;;3.67;;
12832;SDS011;6483;51.310;4.462;2022-12-07T00:09:04;3.10;;;2.80;;
12832;SDS011;6483;51.310;4.462;2022-12-07T00:11:34;4.63;;;3.17;;
12832;SDS011;6483;51.310;4.462;2022-12-07T00:14:01;6.17;;;3.47;;
12832;SDS011;6483;51.310;4.462;2022-12-07T00:16:32;4.80;;;3.40;;
12832;SDS011;6483;51.310;4.462;2022-12-07T00:19:03;5.67;;;3.47;;
12832;SDS011;6483;51.310;4.462;2022-12-07T00:21:30;6.43;;;3.40;;
12832;SDS011;6483;51.310;4.462;2022-12-07T00:23:57;6.33;;;3.67;;
12832;SDS011;6483;51.310;4.462;2022-12-07T00:26:25;4.67;;;3.13;;
12832;SDS011;6483;51.310;4.462;2022-12-07T00:28:57;4.17;;;2.83;;
12832;SDS011;6483;51.310;4.462;2022-12-07T00:31:36;4.67;;;2.90;;
12832;SDS011;6483;51.310;4.462;2022-12-07T00:34:09;5.33;;;3.20;;
12832;SDS011;6483;51.310;4.462;2022-12-07T00:36:41;4.80;;;3.00;;
12832;SDS011;6483;51.310;4.462;2022-12-07T00:39:07;4.60;;;3.37;;
12832;SDS011;6483;51.310;4.462;2022-12-07T00:41:34;8.20;;;3.30;;
12832;SDS011;6483;51.310;4.462;2022-12-07T00:44:03;6.30;;;3.40;;
12832;SDS011;6483;51.310;4.462;2022-12-07T00:46:29;6.97;;;3.57;;
12832;SDS011;6483;51.310;4.462;2022-12-07T00:48:55;4.27;;;3.10;;
12832;SDS011;6483;51.310;4.462;2022-12-07T00:51:21;9.47;;;4.13;;
12832;SDS011;6483;51.310;4.462;2022-12-07T00:53:48;5.30;;;3.53;;
12832;SDS011;6483;51.310;4.462;2022-12-07T00:56:15;6.10;;;3.30;;
12832;SDS011;6483;51.310;4.462;2022-12-07T00:58:52;9.87;;;3.17;;
12832;SDS011;6483;51.310;4.462;2022-12-07T01:01:19;5.03;;;3.37;;
12832;SDS011;6483;51.310;4.462;2022-12-07T01:03:45;8.10;;;3.80;;
12832;SDS011;6483;51.310;4.462;2022-12-07T01:06:13;6.87;;;3.70;;
12832;SDS011;6483;51.310;4.462;2022-12-07T01:08:41;8.93;;;3.53;;
12832;SDS011;6483;51.310;4.462;2022-12-07T01:11:07;5.27;;;3.30;;
12832;SDS011;6483;51.310;4.462;2022-12-07T01:13:36;4.60;;;3.27;;
12832;SDS011;6483;51.310;4.462;2022-12-07T01:16:06;7.40;;;3.53;;
12832;SDS011;6483;51.310;4.462;2022-12-07T01:18:36;7.03;;;3.70;;
12832;SDS011;6483;51.310;4.462;2022-12-07T01:21:12;4.17;;;3.33;;
12832;SDS011;6483;51.310;4.462;2022-12-07T01:23:41;7.00;;;3.17;;
12832;SDS011;6483;51.310;4.462;2022-12-07T01:26:09;7.03;;;3.40;;
12832;SDS011;6483;51.310;4.462;2022-12-07T01:28:36;7.90;;;3.10;;
12832;SDS011;6483;51.310;4.462;2022-12-07T01:31:07;5.03;;;3.17;;
12832;SDS011;6483;51.310;4.462;2022-12-07T01:33:36;5.80;;;3.47;;
12832;SDS011;6483;51.310;4.462;2022-12-07T01:36:04;5.27;;;3.10;;
12832;SDS011;6483;51.310;4.462;2022-12-07T01:38:31;5.67;;;3.30;;
12832;SDS011;6483;51.310;4.462;2022-12-07T01:41:00;6.13;;;3.27;;
12832;SDS011;6483;51.310;4.462;2022-12-07T01:43:30;5.50;;;3.77;;
12832;SDS011;6483;51.310;4.462;2022-12-07T01:46:03;5.83;;;4.17;;
12832;SDS011;6483;51.310;4.462;2022-12-07T01:48:39;8.87;;;3.77;;
12832;SDS011;6483;51.310;4.462;2022-12-07T01:51:08;5.03;;;3.73;;
12832;SDS011;6483;51.310;4.462;2022-12-07T01:53:38;5.67;;;3.53;;
12832;SDS011;6483;51.310;4.462;2022-12-07T01:56:07;10.43;;;4.20;;
12832;SDS011;6483;51.310;4.462;2022-12-07T01:58:45;8.23;;;3.57;;
12832;SDS011;6483;51.310;4.462;2022-12-07T02:01:11;7.07;;;4.03;;
12832;SDS011;6483;51.310;4.462;2022-12-07T02:03:38;8.10;;;3.90;;
12832;SDS011;6483;51.310;4.462;2022-12-07T02:06:06;7.97;;;3.93;;
12832;SDS011;6483;51.310;4.462;2022-12-07T02:08:33;5.73;;;3.83;;
12832;SDS011;6483;51.310;4.462;2022-12-07T02:11:00;10.07;;;4.00;;
12832;SDS011;6483;51.310;4.462;2022-12-07T02:13:33;7.60;;;4.13;;
12832;SDS011;6483;51.310;4.462;2022-12-07T02:19:14;5.07;;;3.83;;
12832;SDS011;6483;51.310;4.462;2022-12-07T02:30:52;5.77;;;3.80;;
12832;SDS011;6483;51.310;4.462;2022-12-07T02:36:19;7.13;;;4.43;;
12832;SDS011;6483;51.310;4.462;2022-12-07T02:39:02;6.97;;;4.23;;
12832;SDS011;6483;51.310;4.462;2022-12-07T02:41:52;6.23;;;4.23;;
12832;SDS011;6483;51.310;4.462;2022-12-07T02:44:23;7.70;;;4.30;;
12832;SDS011;6483;51.310;4.462;2022-12-07T02:46:59;12.93;;;4.43;;
12832;SDS011;6483;51.310;4.462;2022-12-07T02:49:32;6.83;;;3.73;;
12832;SDS011;6483;51.310;4.462;2022-12-07T02:52:00;4.90;;;3.87;;
12832;SDS011;6483;51.310;4.462;2022-12-07T02:54:26;9.07;;;4.07;;
12832;SDS011;6483;51.310;4.462;2022-12-07T03:01:04;7.70;;;3.57;;
12832;SDS011;6483;51.310;4.462;2022-12-07T03:03:11;8.53;;;3.97;;
12832;SDS011;6483;51.310;4.462;2022-12-07T03:05:59;5.20;;;3.50;;
12832;SDS011;6483;51.310;4.462;2022-12-07T03:08:44;6.90;;;3.47;;
12832;SDS011;6483;51.310;4.462;2022-12-07T03:11:24;8.20;;;3.80;;
12832;SDS011;6483;51.310;4.462;2022-12-07T03:14:02;6.17;;;3.93;;
12832;SDS011;6483;51.310;4.462;2022-12-07T03:19:22;5.07;;;3.43;;
12832;SDS011;6483;51.310;4.462;2022-12-07T03:21:58;6.33;;;3.33;;
12832;SDS011;6483;51.310;4.462;2022-12-07T03:24:29;6.33;;;3.67;;
12832;SDS011;6483;51.310;4.462;2022-12-07T03:27:06;7.83;;;3.73;;
12832;SDS011;6483;51.310;4.462;2022-12-07T03:29:51;8.00;;;3.40;;
12832;SDS011;6483;51.310;4.462;2022-12-07T03:41:06;5.77;;;3.63;;
12832;SDS011;6483;51.310;4.462;2022-12-07T03:43:41;6.07;;;3.77;;
12832;SDS011;6483;51.310;4.462;2022-12-07T03:49:04;4.17;;;3.67;;
12832;SDS011;6483;51.310;4.462;2022-12-07T03:52:03;6.23;;;4.13;;
12832;SDS011;6483;51.310;4.462;2022-12-07T03:57:25;5.53;;;3.40;;
12832;SDS011;6483;51.310;4.462;2022-12-07T03:59:55;9.57;;;4.13;;
12832;SDS011;6483;51.310;4.462;2022-12-07T04:02:22;4.47;;;3.70;;
12832;SDS011;6483;51.310;4.462;2022-12-07T04:04:50;6.10;;;3.70;;
12832;SDS011;6483;51.310;4.462;2022-12-07T04:07:16;5.97;;;3.67;;
12832;SDS011;6483;51.310;4.462;2022-12-07T04:09:42;6.27;;;3.60;;
12832;SDS011;6483;51.310;4.462;2022-12-07T04:12:08;4.73;;;3.57;;
12832;SDS011;6483;51.310;4.462;2022-12-07T04:14:36;8.73;;;3.90;;
12832;SDS011;6483;51.310;4.462;2022-12-07T04:17:02;4.37;;;3.50;;
12832;SDS011;6483;51.310;4.462;2022-12-07T04:19:33;3.57;;;3.20;;
12832;SDS011;6483;51.310;4.462;2022-12-07T04:22:00;6.33;;;3.17;;
12832;SDS011;6483;51.310;4.462;2022-12-07T04:24:27;4.67;;;3.40;;
12832;SDS011;6483;51.310;4.462;2022-12-07T04:26:53;9.90;;;4.10;;
12832;SDS011;6483;51.310;4.462;2022-12-07T04:29:20;5.67;;;3.77;;
12832;SDS011;6483;51.310;4.462;2022-12-07T04:31:46;10.60;;;4.13;;
12832;SDS011;6483;51.310;4.462;2022-12-07T04:34:13;4.13;;;3.57;;
12832;SDS011;6483;51.310;4.462;2022-12-07T04:36:39;6.10;;;3.73;;
12832;SDS011;6483;51.310;4.462;2022-12-07T04:39:20;5.23;;;3.80;;
12832;SDS011;6483;51.310;4.462;2022-12-07T04:41:47;8.13;;;4.23;;
12832;SDS011;6483;51.310;4.462;2022-12-07T04:44:13;5.40;;;3.87;;
12832;SDS011;6483;51.310;4.462;2022-12-07T04:46:40;5.20;;;3.83;;
12832;SDS011;6483;51.310;4.462;2022-12-07T04:49:06;5.20;;;3.80;;
12832;SDS011;6483;51.310;4.462;2022-12-07T04:51:32;5.30;;;3.67;;
12832;SDS011;6483;51.310;4.462;2022-12-07T04:53:58;8.73;;;4.10;;
12832;SDS011;6483;51.310;4.462;2022-12-07T04:56:24;6.40;;;4.07;;
12832;SDS011;6483;51.310;4.462;2022-12-07T04:58:55;5.93;;;4.27;;
12832;SDS011;6483;51.310;4.462;2022-12-07T05:01:22;6.93;;;4.30;;
12832;SDS011;6483;51.310;4.462;2022-12-07T05:03:48;4.67;;;4.07;;
12832;SDS011;6483;51.310;4.462;2022-12-07T05:06:14;8.13;;;4.37;;
12832;SDS011;6483;51.310;4.462;2022-12-07T05:08:40;6.03;;;4.27;;
12832;SDS011;6483;51.310;4.462;2022-12-07T05:11:06;11.10;;;4.83;;
12832;SDS011;6483;51.310;4.462;2022-12-07T05:13:32;9.73;;;4.40;;
12832;SDS011;6483;51.310;4.462;2022-12-07T05:16:03;6.03;;;4.90;;
12832;SDS011;6483;51.310;4.462;2022-12-07T05:18:31;5.33;;;4.50;;
12832;SDS011;6483;51.310;4.462;2022-12-07T05:21:30;4.50;;;4.10;;
12832;SDS011;6483;51.310;4.462;2022-12-07T05:23:49;7.00;;;3.90;;
12832;SDS011;6483;51.310;4.462;2022-12-07T05:26:15;6.07;;;3.90;;
12832;SDS011;6483;51.310;4.462;2022-12-07T05:28:41;6.30;;;4.07;;
12832;SDS011;6483;51.310;4.462;2022-12-07T05:31:07;8.60;;;4.53;;
12832;SDS011;6483;51.310;4.462;2022-12-07T05:33:32;6.43;;;4.00;;
12832;SDS011;6483;51.310;4.462;2022-12-07T05:35:58;7.93;;;4.13;;
12832;SDS011;6483;51.310;4.462;2022-12-07T05:38:24;6.83;;;3.90;;
12832;SDS011;6483;51.310;4.462;2022-12-07T05:40:52;6.27;;;4.17;;
12832;SDS011;6483;51.310;4.462;2022-12-07T05:43:18;4.83;;;3.80;;
12832;SDS011;6483;51.310;4.462;2022-12-07T05:45:44;5.27;;;3.50;;
12832;SDS011;6483;51.310;4.462;2022-12-07T05:48:09;4.43;;;3.40;;
12832;SDS011;6483;51.310;4.462;2022-12-07T05:50:38;4.83;;;3.47;;
12832;SDS011;6483;51.310;4.462;2022-12-07T05:53:04;4.87;;;3.50;;
12832;SDS011;6483;51.310;4.462;2022-12-07T05:55:30;7.57;;;4.30;;
12832;SDS011;6483;51.310;4.462;2022-12-07T05:57:55;7.87;;;4.23;;
12832;SDS011;6483;51.310;4.462;2022-12-07T06:00:40;11.57;;;4.60;;
12832;SDS011;6483;51.310;4.462;2022-12-07T06:03:05;6.53;;;4.07;;
12832;SDS011;6483;51.310;4.462;2022-12-07T06:05:34;6.30;;;3.40;;
12832;SDS011;6483;51.310;4.462;2022-12-07T06:08:01;4.50;;;3.43;;
12832;SDS011;6483;51.310;4.462;2022-12-07T06:10:33;5.53;;;4.27;;
12832;SDS011;6483;51.310;4.462;2022-12-07T06:12:58;8.90;;;5.07;;
12832;SDS011;6483;51.310;4.462;2022-12-07T06:15:24;10.57;;;4.30;;
12832;SDS011;6483;51.310;4.462;2022-12-07T06:17:50;6.77;;;3.97;;
12832;SDS011;6483;51.310;4.462;2022-12-07T06:20:21;7.40;;;4.13;;
12832;SDS011;6483;51.310;4.462;2022-12-07T06:22:47;5.97;;;3.87;;
12832;SDS011;6483;51.310;4.462;2022-12-07T06:25:18;8.20;;;4.67;;
12832;SDS011;6483;51.310;4.462;2022-12-07T06:27:44;5.63;;;4.03;;
12832;SDS011;6483;51.310;4.462;2022-12-07T06:30:10;6.07;;;4.03;;
12832;SDS011;6483;51.310;4.462;2022-12-07T06:32:36;7.87;;;4.03;;
12832;SDS011;6483;51.310;4.462;2022-12-07T06:35:05;11.93;;;5.20;;
12832;SDS011;6483;51.310;4.462;2022-12-07T06:37:31;13.20;;;7.37;;
12832;SDS011;6483;51.310;4.462;2022-12-07T06:39:57;10.33;;;4.80;;
12832;SDS011;6483;51.310;4.462;2022-12-07T06:42:26;6.47;;;4.10;;
12832;SDS011;6483;51.310;4.462;2022-12-07T06:44:51;6.43;;;4.50;;
12832;SDS011;6483;51.310;4.462;2022-12-07T06:47:17;6.03;;;4.17;;
12832;SDS011;6483;51.310;4.462;2022-12-07T06:49:43;14.10;;;8.10;;
12832;SDS011;6483;51.310;4.462;2022-12-07T06:52:08;16.07;;;8.47;;
12832;SDS011;6483;51.310;4.462;2022-12-07T06:54:34;12.50;;;8.07;;
12832;SDS011;6483;51.310;4.462;2022-12-07T06:57:03;10.97;;;6.87;;
12832;SDS011;6483;51.310;4.462;2022-12-07T06:59:31;9.80;;;5.67;;
12832;SDS011;6483;51.310;4.462;2022-12-07T07:02:00;8.87;;;5.00;;
12832;SDS011;6483;51.310;4.462;2022-12-07T07:04:26;6.40;;;4.80;;
12832;SDS011;6483;51.310;4.462;2022-12-07T07:07:15;7.23;;;4.43;;
12832;SDS011;6483;51.310;4.462;2022-12-07T07:09:41;6.47;;;4.93;;
12832;SDS011;6483;51.310;4.462;2022-12-07T07:12:07;4.63;;;3.80;;
12832;SDS011;6483;51.310;4.462;2022-12-07T07:14:32;6.70;;;4.10;;
12832;SDS011;6483;51.310;4.462;2022-12-07T07:16:59;8.00;;;5.13;;
12832;SDS011;6483;51.310;4.462;2022-12-07T07:19:24;17.03;;;8.80;;
12832;SDS011;6483;51.310;4.462;2022-12-07T07:21:50;16.60;;;9.97;;
12832;SDS011;6483;51.310;4.462;2022-12-07T07:24:15;13.50;;;8.30;;
12832;SDS011;6483;51.310;4.462;2022-12-07T07:26:41;12.63;;;7.47;;
12832;SDS011;6483;51.310;4.462;2022-12-07T07:29:07;13.03;;;7.23;;
12832;SDS011;6483;51.310;4.462;2022-12-07T07:31:35;12.07;;;7.70;;
12832;SDS011;6483;51.310;4.462;2022-12-07T07:34:02;10.17;;;6.77;;
12832;SDS011;6483;51.310;4.462;2022-12-07T07:36:35;9.77;;;5.33;;
12832;SDS011;6483;51.310;4.462;2022-12-07T07:39:01;9.43;;;5.90;;
12832;SDS011;6483;51.310;4.462;2022-12-07T07:41:29;9.60;;;6.17;;
12832;SDS011;6483;51.310;4.462;2022-12-07T07:43:56;13.23;;;6.93;;
12832;SDS011;6483;51.310;4.462;2022-12-07T07:46:21;9.90;;;6.47;;
12832;SDS011;6483;51.310;4.462;2022-12-07T07:48:47;13.33;;;7.87;;
12832;SDS011;6483;51.310;4.462;2022-12-07T07:51:15;9.63;;;7.10;;
12832;SDS011;6483;51.310;4.462;2022-12-07T07:53:47;14.47;;;7.90;;
12832;SDS011;6483;51.310;4.462;2022-12-07T07:56:13;13.70;;;8.53;;
12832;SDS011;6483;51.310;4.462;2022-12-07T07:58:38;14.77;;;8.70;;
12832;SDS011;6483;51.310;4.462;2022-12-07T08:01:07;15.53;;;8.97;;
12832;SDS011;6483;51.310;4.462;2022-12-07T08:03:36;16.70;;;10.03;;
12832;SDS011;6483;51.310;4.462;2022-12-07T08:06:07;12.43;;;8.53;;
12832;SDS011;6483;51.310;4.462;2022-12-07T08:08:33;12.87;;;8.37;;
12832;SDS011;6483;51.310;4.462;2022-12-07T08:11:17;12.67;;;8.50;;
12832;SDS011;6483;51.310;4.462;2022-12-07T08:13:46;13.13;;;8.60;;
12832;SDS011;6483;51.310;4.462;2022-12-07T08:16:12;22.97;;;12.07;;
12832;SDS011;6483;51.310;4.462;2022-12-07T08:18:40;23.13;;;13.47;;
12832;SDS011;6483;51.310;4.462;2022-12-07T08:21:07;20.83;;;9.97;;
12832;SDS011;6483;51.310;4.462;2022-12-07T08:23:35;19.17;;;11.43;;
12832;SDS011;6483;51.310;4.462;2022-12-07T08:26:06;13.83;;;8.97;;
12832;SDS011;6483;51.310;4.462;2022-12-07T08:28:34;13.77;;;8.53;;
12832;SDS011;6483;51.310;4.462;2022-12-07T08:31:04;13.10;;;8.87;;
12832;SDS011;6483;51.310;4.462;2022-12-07T08:33:35;11.77;;;7.77;;
12832;SDS011;6483;51.310;4.462;2022-12-07T08:36:03;15.07;;;9.07;;
12832;SDS011;6483;51.310;4.462;2022-12-07T08:38:31;16.80;;;9.47;;
12832;SDS011;6483;51.310;4.462;2022-12-07T08:40:59;16.97;;;9.37;;
12832;SDS011;6483;51.310;4.462;2022-12-07T08:43:25;12.47;;;7.67;;
12832;SDS011;6483;51.310;4.462;2022-12-07T08:45:56;16.27;;;7.40;;
12832;SDS011;6483;51.310;4.462;2022-12-07T08:48:32;12.70;;;7.13;;
12832;SDS011;6483;51.310;4.462;2022-12-07T08:51:01;15.10;;;7.00;;
12832;SDS011;6483;51.310;4.462;2022-12-07T08:53:27;14.60;;;7.10;;
12832;SDS011;6483;51.310;4.462;2022-12-07T08:55:54;18.70;;;9.83;;
12832;SDS011;6483;51.310;4.462;2022-12-07T08:58:22;14.57;;;8.60;;
12832;SDS011;6483;51.310;4.462;2022-12-07T09:00:48;13.40;;;7.23;;
12832;SDS011;6483;51.310;4.462;2022-12-07T09:03:17;19.57;;;13.23;;
12832;SDS011;6483;51.310;4.462;2022-12-07T09:05:43;20.90;;;10.70;;
12832;SDS011;6483;51.310;4.462;2022-12-07T09:08:09;15.10;;;9.53;;
12832;SDS011;6483;51.310;4.462;2022-12-07T09:10:35;21.77;;;13.77;;
12832;SDS011;6483;51.310;4.462;2022-12-07T09:13:01;18.43;;;10.07;;
12832;SDS011;6483;51.310;4.462;2022-12-07T09:15:30;17.87;;;7.17;;
12832;SDS011;6483;51.310;4.462;2022-12-07T09:17:56;13.83;;;7.50;;
12832;SDS011;6483;51.310;4.462;2022-12-07T09:20:25;15.03;;;8.13;;
12832;SDS011;6483;51.310;4.462;2022-12-07T09:22:50;16.87;;;8.87;;
12832;SDS011;6483;51.310;4.462;2022-12-07T09:25:16;13.07;;;9.10;;
12832;SDS011;6483;51.310;4.462;2022-12-07T09:27:47;14.97;;;9.27;;
12832;SDS011;6483;51.310;4.462;2022-12-07T09:30:13;15.67;;;9.57;;
12832;SDS011;6483;51.310;4.462;2022-12-07T09:32:40;12.23;;;8.17;;
12832;SDS011;6483;51.310;4.462;2022-12-07T09:35:05;16.87;;;7.47;;
12832;SDS011;6483;51.310;4.462;2022-12-07T09:37:35;14.50;;;7.17;;
12832;SDS011;6483;51.310;4.462;2022-12-07T09:40:04;17.60;;;6.37;;
12832;SDS011;6483;51.310;4.462;2022-12-07T09:42:37;15.43;;;6.03;;
12832;SDS011;6483;51.310;4.462;2022-12-07T09:45:06;11.97;;;4.80;;
12832;SDS011;6483;51.310;4.462;2022-12-07T09:47:37;16.67;;;4.40;;
12832;SDS011;6483;51.310;4.462;2022-12-07T09:50:04;14.80;;;4.30;;
12832;SDS011;6483;51.310;4.462;2022-12-07T09:52:34;8.80;;;4.00;;
12832;SDS011;6483;51.310;4.462;2022-12-07T09:55:01;10.80;;;3.23;;
12832;SDS011;6483;51.310;4.462;2022-12-07T09:57:35;9.93;;;3.20;;
12832;SDS011;6483;51.310;4.462;2022-12-07T10:00:04;10.23;;;3.27;;
12832;SDS011;6483;51.310;4.462;2022-12-07T10:02:56;9.47;;;2.73;;
12832;SDS011;6483;51.310;4.462;2022-12-07T10:05:29;8.53;;;2.70;;
12832;SDS011;6483;51.310;4.462;2022-12-07T10:07:59;10.67;;;2.47;;
12832;SDS011;6483;51.310;4.462;2022-12-07T10:10:26;10.83;;;2.47;;
12832;SDS011;6483;51.310;4.462;2022-12-07T10:12:59;7.10;;;2.50;;
12832;SDS011;6483;51.310;4.462;2022-12-07T10:15:44;11.90;;;2.77;;
12832;SDS011;6483;51.310;4.462;2022-12-07T10:18:46;6.60;;;2.27;;
12832;SDS011;6483;51.310;4.462;2022-12-07T10:21:25;5.67;;;2.47;;
12832;SDS011;6483;51.310;4.462;2022-12-07T10:24:02;9.17;;;2.50;;
12832;SDS011;6483;51.310;4.462;2022-12-07T10:32:00;7.17;;;2.47;;
12832;SDS011;6483;51.310;4.462;2022-12-07T10:34:36;6.93;;;2.00;;
12832;SDS011;6483;51.310;4.462;2022-12-07T10:39:41;10.27;;;2.53;;
12832;SDS011;6483;51.310;4.462;2022-12-07T10:42:28;11.23;;;2.00;;
12832;SDS011;6483;51.310;4.462;2022-12-07T10:50:18;6.93;;;2.67;;
12832;SDS011;6483;51.310;4.462;2022-12-07T10:58:55;12.13;;;3.30;;
12832;SDS011;6483;51.310;4.462;2022-12-07T11:02:17;7.50;;;3.30;;
12832;SDS011;6483;51.310;4.462;2022-12-07T11:07:13;8.43;;;2.67;;
12832;SDS011;6483;51.310;4.462;2022-12-07T11:12:59;8.73;;;1.70;;
12832;SDS011;6483;51.310;4.462;2022-12-07T11:18:24;5.77;;;2.00;;
12832;SDS011;6483;51.310;4.462;2022-12-07T11:20:58;9.87;;;2.80;;
12832;SDS011;6483;51.310;4.462;2022-12-07T11:31:45;9.50;;;3.73;;
12832;SDS011;6483;51.310;4.462;2022-12-07T11:37:18;10.13;;;3.13;;
12832;SDS011;6483;51.310;4.462;2022-12-07T11:39:55;7.17;;;2.73;;
12832;SDS011;6483;51.310;4.462;2022-12-07T11:43:32;11.60;;;5.70;;
12832;SDS011;6483;51.310;4.462;2022-12-07T11:45:44;8.13;;;1.87;;
12832;SDS011;6483;51.310;4.462;2022-12-07T11:51:14;7.30;;;2.83;;
12832;SDS011;6483;51.310;4.462;2022-12-07T11:56:21;7.93;;;3.37;;
12832;SDS011;6483;51.310;4.462;2022-12-07T11:59:01;5.27;;;3.17;;
12832;SDS011;6483;51.310;4.462;2022-12-07T12:01:39;12.00;;;3.37;;
12832;SDS011;6483;51.310;4.462;2022-12-07T12:04:29;9.67;;;2.23;;
12832;SDS011;6483;51.310;4.462;2022-12-07T12:07:06;5.20;;;1.80;;
12832;SDS011;6483;51.310;4.462;2022-12-07T12:09:44;6.30;;;2.20;;
12832;SDS011;6483;51.310;4.462;2022-12-07T12:21:14;5.63;;;1.23;;
12832;SDS011;6483;51.310;4.462;2022-12-07T12:23:56;3.40;;;1.30;;
12832;SDS011;6483;51.310;4.462;2022-12-07T12:26:53;7.20;;;4.00;;
12832;SDS011;6483;51.310;4.462;2022-12-07T12:29:36;5.63;;;1.73;;
12832;SDS011;6483;51.310;4.462;2022-12-07T12:32:13;5.27;;;1.53;;
12832;SDS011;6483;51.310;4.462;2022-12-07T12:40:41;3.13;;;1.43;;
12832;SDS011;6483;51.310;4.462;2022-12-07T12:43:39;6.00;;;1.23;;
12832;SDS011;6483;51.310;4.462;2022-12-07T12:48:53;3.70;;;2.50;;
12832;SDS011;6483;51.310;4.462;2022-12-07T12:51:36;4.00;;;1.90;;
12832;SDS011;6483;51.310;4.462;2022-12-07T12:56:51;4.60;;;1.50;;
12832;SDS011;6483;51.310;4.462;2022-12-07T12:59:47;3.83;;;1.67;;
12832;SDS011;6483;51.310;4.462;2022-12-07T13:20:59;5.70;;;3.27;;
12832;SDS011;6483;51.310;4.462;2022-12-07T13:29:21;7.73;;;4.20;;
12832;SDS011;6483;51.310;4.462;2022-12-07T13:31:57;8.13;;;3.73;;
12832;SDS011;6483;51.310;4.462;2022-12-07T13:37:10;5.53;;;2.10;;
12832;SDS011;6483;51.310;4.462;2022-12-07T13:39:58;5.70;;;3.03;;
12832;SDS011;6483;51.310;4.462;2022-12-07T13:42:30;6.13;;;3.37;;
12832;SDS011;6483;51.310;4.462;2022-12-07T13:44:58;5.53;;;2.83;;
12832;SDS011;6483;51.310;4.462;2022-12-07T13:50:01;4.60;;;2.20;;
12832;SDS011;6483;51.310;4.462;2022-12-07T13:52:46;5.90;;;2.50;;
12832;SDS011;6483;51.310;4.462;2022-12-07T13:55:13;6.27;;;2.80;;
12832;SDS011;6483;51.310;4.462;2022-12-07T13:57:42;8.23;;;6.23;;
12832;SDS011;6483;51.310;4.462;2022-12-07T14:00:15;5.07;;;2.93;;
12832;SDS011;6483;51.310;4.462;2022-12-07T14:05:30;3.90;;;2.20;;
12832;SDS011;6483;51.310;4.462;2022-12-07T14:07:59;7.10;;;2.73;;
12832;SDS011;6483;51.310;4.462;2022-12-07T14:16:22;5.57;;;2.80;;
12832;SDS011;6483;51.310;4.462;2022-12-07T14:19:01;9.93;;;5.40;;
12832;SDS011;6483;51.310;4.462;2022-12-07T14:21:29;5.93;;;2.13;;
12832;SDS011;6483;51.310;4.462;2022-12-07T14:24:02;5.70;;;1.60;;
12832;SDS011;6483;51.310;4.462;2022-12-07T14:26:41;7.57;;;1.67;;
12832;SDS011;6483;51.310;4.462;2022-12-07T14:32:17;5.97;;;1.90;;
12832;SDS011;6483;51.310;4.462;2022-12-07T14:35:11;6.07;;;1.57;;
12832;SDS011;6483;51.310;4.462;2022-12-07T14:37:39;4.47;;;1.10;;
12832;SDS011;6483;51.310;4.462;2022-12-07T14:40:07;3.47;;;1.87;;
12832;SDS011;6483;51.310;4.462;2022-12-07T14:42:50;3.10;;;1.77;;
12832;SDS011;6483;51.310;4.462;2022-12-07T14:45:26;4.80;;;1.73;;
12832;SDS011;6483;51.310;4.462;2022-12-07T14:47:52;3.60;;;1.60;;
12832;SDS011;6483;51.310;4.462;2022-12-07T14:50:18;6.30;;;2.30;;
12832;SDS011;6483;51.310;4.462;2022-12-07T14:52:54;4.23;;;1.63;;
12832;SDS011;6483;51.310;4.462;2022-12-07T14:55:26;2.20;;;1.20;;
12832;SDS011;6483;51.310;4.462;2022-12-07T14:57:53;7.03;;;2.33;;
12832;SDS011;6483;51.310;4.462;2022-12-07T15:00:20;3.43;;;1.13;;
12832;SDS011;6483;51.310;4.462;2022-12-07T15:02:47;7.60;;;4.60;;
12832;SDS011;6483;51.310;4.462;2022-12-07T15:05:13;10.30;;;6.43;;
12832;SDS011;6483;51.310;4.462;2022-12-07T15:07:44;12.30;;;6.60;;
12832;SDS011;6483;51.310;4.462;2022-12-07T15:12:47;4.20;;;1.20;;
12832;SDS011;6483;51.310;4.462;2022-12-07T15:15:13;5.30;;;1.67;;
12832;SDS011;6483;51.310;4.462;2022-12-07T15:17:39;4.73;;;1.37;;
12832;SDS011;6483;51.310;4.462;2022-12-07T15:20:07;7.07;;;1.80;;
12832;SDS011;6483;51.310;4.462;2022-12-07T15:22:42;4.00;;;1.40;;
12832;SDS011;6483;51.310;4.462;2022-12-07T15:25:08;4.07;;;1.40;;
12832;SDS011;6483;51.310;4.462;2022-12-07T15:27:37;5.47;;;1.40;;
12832;SDS011;6483;51.310;4.462;2022-12-07T15:30:06;2.40;;;1.00;;
12832;SDS011;6483;51.310;4.462;2022-12-07T15:32:37;5.23;;;2.50;;
12832;SDS011;6483;51.310;4.462;2022-12-07T15:35:05;9.20;;;2.60;;
12832;SDS011;6483;51.310;4.462;2022-12-07T15:37:34;7.70;;;6.07;;
12832;SDS011;6483;51.310;4.462;2022-12-07T15:40:00;17.93;;;11.40;;
12832;SDS011;6483;51.310;4.462;2022-12-07T15:42:26;29.37;;;18.60;;
12832;SDS011;6483;51.310;4.462;2022-12-07T15:44:52;17.57;;;10.43;;
12832;SDS011;6483;51.310;4.462;2022-12-07T15:50:15;13.33;;;6.27;;
12832;SDS011;6483;51.310;4.462;2022-12-07T15:52:42;12.20;;;7.33;;
12832;SDS011;6483;51.310;4.462;2022-12-07T15:55:11;8.87;;;5.80;;
12832;SDS011;6483;51.310;4.462;2022-12-07T15:57:37;55.93;;;33.27;;
12832;SDS011;6483;51.310;4.462;2022-12-07T16:00:03;15.23;;;10.67;;
12832;SDS011;6483;51.310;4.462;2022-12-07T16:02:33;9.17;;;5.80;;
12832;SDS011;6483;51.310;4.462;2022-12-07T16:05:00;4.23;;;3.43;;
12832;SDS011;6483;51.310;4.462;2022-12-07T16:07:25;4.97;;;2.50;;
12832;SDS011;6483;51.310;4.462;2022-12-07T16:09:51;8.47;;;3.20;;
12832;SDS011;6483;51.310;4.462;2022-12-07T16:12:20;6.90;;;2.90;;
12832;SDS011;6483;51.310;4.462;2022-12-07T16:14:45;9.00;;;3.00;;
12832;SDS011;6483;51.310;4.462;2022-12-07T16:17:11;5.43;;;3.43;;
12832;SDS011;6483;51.310;4.462;2022-12-07T16:19:37;7.07;;;3.37;;
12832;SDS011;6483;51.310;4.462;2022-12-07T16:22:03;11.50;;;5.50;;
12832;SDS011;6483;51.310;4.462;2022-12-07T16:24:33;9.60;;;5.73;;
12832;SDS011;6483;51.310;4.462;2022-12-07T16:26:59;7.80;;;4.57;;
12832;SDS011;6483;51.310;4.462;2022-12-07T16:29:25;10.30;;;3.83;;
12832;SDS011;6483;51.310;4.462;2022-12-07T16:31:51;10.97;;;4.50;;
12832;SDS011;6483;51.310;4.462;2022-12-07T16:34:17;7.20;;;5.20;;
12832;SDS011;6483;51.310;4.462;2022-12-07T16:36:49;5.30;;;3.43;;
12832;SDS011;6483;51.310;4.462;2022-12-07T16:39:15;7.73;;;4.07;;
12832;SDS011;6483;51.310;4.462;2022-12-07T16:41:43;9.47;;;4.93;;
12832;SDS011;6483;51.310;4.462;2022-12-07T16:44:11;8.10;;;4.13;;
12832;SDS011;6483;51.310;4.462;2022-12-07T16:46:38;10.00;;;4.80;;
12832;SDS011;6483;51.310;4.462;2022-12-07T16:49:05;6.47;;;4.63;;
12832;SDS011;6483;51.310;4.462;2022-12-07T16:51:32;20.93;;;10.63;;
12832;SDS011;6483;51.310;4.462;2022-12-07T16:54:00;13.83;;;8.00;;
12832;SDS011;6483;51.310;4.462;2022-12-07T16:56:26;23.90;;;14.63;;
12832;SDS011;6483;51.310;4.462;2022-12-07T16:58:54;22.37;;;12.93;;
12832;SDS011;6483;51.310;4.462;2022-12-07T17:01:20;33.93;;;19.90;;
12832;SDS011;6483;51.310;4.462;2022-12-07T17:03:49;21.53;;;12.50;;
12832;SDS011;6483;51.310;4.462;2022-12-07T17:06:16;6.87;;;5.13;;
12832;SDS011;6483;51.310;4.462;2022-12-07T17:08:46;8.07;;;5.40;;
12832;SDS011;6483;51.310;4.462;2022-12-07T17:11:16;6.27;;;2.87;;
12832;SDS011;6483;51.310;4.462;2022-12-07T17:13:47;7.80;;;3.00;;
12832;SDS011;6483;51.310;4.462;2022-12-07T17:16:32;7.07;;;3.30;;
12832;SDS011;6483;51.310;4.462;2022-12-07T17:18:59;7.27;;;3.00;;
12832;SDS011;6483;51.310;4.462;2022-12-07T17:21:28;10.23;;;3.00;;
12832;SDS011;6483;51.310;4.462;2022-12-07T17:23:54;5.57;;;2.90;;
12832;SDS011;6483;51.310;4.462;2022-12-07T17:26:23;4.03;;;2.73;;
12832;SDS011;6483;51.310;4.462;2022-12-07T17:28:49;5.07;;;3.73;;
12832;SDS011;6483;51.310;4.462;2022-12-07T17:31:16;9.50;;;5.83;;
12832;SDS011;6483;51.310;4.462;2022-12-07T17:33:44;7.87;;;5.97;;
12832;SDS011;6483;51.310;4.462;2022-12-07T17:36:18;7.17;;;3.60;;
12832;SDS011;6483;51.310;4.462;2022-12-07T17:38:52;8.93;;;4.70;;
12832;SDS011;6483;51.310;4.462;2022-12-07T17:41:27;6.87;;;3.07;;
12832;SDS011;6483;51.310;4.462;2022-12-07T17:44:13;4.87;;;2.77;;
12832;SDS011;6483;51.310;4.462;2022-12-07T17:46:41;5.60;;;2.97;;